Time;durP1;ratioP1;P1;durP2;ratioP2;P2;SDS_P1;SDS_P2;PMS_P1;PMS_P2;Temp;Humidity;BMP_temperature;BMP_pressure;BME280_temperature;BME280_humidity;BME280_pressure;Samples;Min_cycle;Max_cycle;Signal;HPM_P1;HPM_P2
2020/12/17 09:57:18;;;;;;;48.98;31.27;;;;;;;8.85;73.50;101138.71;2189623;87;25865;-81
2020/12/17 10:18:56;;;;;;;54.53;32.85;;;;;;;8.87;72.57;101112.76;2386530;78;25714;-81
2020/12/17 10:22:49;;;;;;;47.00;30.90;;;;;;;8.89;72.33;101113.31;2394320;80;25815;-83
2020/12/17 10:26:21;;;;;;;34.00;22.27;;;;;;;8.89;72.22;101108.11;2363001;82;25997;-82
2020/12/17 10:29:42;;;;;;;38.85;23.15;;;;;;;8.96;74.25;101096.25;2373000;82;25631;-79
2020/12/17 10:33:14;;;;;;;35.35;23.92;;;;;;;9.49;76.48;101092.33;2367565;82;25780;-78
2020/12/17 10:36:39;;;;;;;38.92;24.52;;;;;;;9.86;76.23;101095.94;2381670;82;25637;-79
2020/12/17 10:41:03;;;;;;;;;;;;;;;;;;;;;
2020/12/17 11:06:34;;;;;;;44.67;29.00;;;;;;;9.65;72.77;101082.99;2484599;78;27804;-79
2020/12/17 11:09:59;;;;;;;48.50;28.45;;;;;;;9.58;72.69;101082.67;2453611;79;25753;-82
2020/12/17 11:13:33;;;;;;;;;;;;;;;;;;;;;
2020/12/17 11:17:20;;;;;;;41.70;26.83;;;;;;;9.59;72.25;101080.56;2558964;76;26833;-80
2020/12/17 11:20:45;;;;;;;47.67;29.75;;;;;;;9.50;72.05;101084.98;2533485;77;25682;-79
2020/12/17 11:24:08;;;;;;;48.85;29.27;;;;;;;9.46;72.00;101077.47;2544562;76;26002;-79
2020/12/17 11:27:30;;;;;;;47.83;27.98;;;;;;;9.43;71.80;101079.95;2520029;77;25804;-79
2020/12/17 11:30:51;;;;;;;43.80;29.60;;;;;;;9.42;71.75;101080.80;2525418;76;25576;-80
2020/12/17 11:34:28;;;;;;;52.73;29.67;;;;;;;9.39;71.40;101084.98;2520820;77;25940;-79
2020/12/17 11:37:52;;;;;;;48.13;29.42;;;;;;;9.36;71.44;101080.96;2456015;80;25761;-82
2020/12/17 11:41:23;;;;;;;51.30;30.92;;;;;;;9.35;71.35;101077.48;2440723;80;26034;-82
2020/12/17 11:45:02;;;;;;;47.23;29.67;;;;;;;9.32;71.24;101072.15;2458967;80;26155;-81
2020/12/17 11:48:30;;;;;;;55.80;31.82;;;;;;;9.31;71.08;101077.27;2448921;80;25708;-81
2020/12/17 11:51:58;;;;;;;52.85;30.08;;;;;;;9.29;70.93;101074.63;2400265;80;26021;-82
2020/12/17 11:55:30;;;;;;;51.13;32.15;;;;;;;9.27;70.91;101064.97;2389772;81;25661;-82
2020/12/17 11:58:52;;;;;;;47.83;30.27;;;;;;;9.26;70.80;101061.48;2398580;81;26160;-82
2020/12/17 12:02:35;;;;;;;51.02;30.37;;;;;;;9.26;70.64;101069.30;2232044;86;25999;-81
2020/12/17 12:20:26;;;;;;;53.55;32.23;;;;;;;9.13;70.28;101056.20;2436842;76;26221;-80
2020/12/17 12:24:07;;;;;;;52.43;31.10;;;;;;;9.12;70.30;101053.55;2496075;76;25765;-80
2020/12/17 12:39:28;;;;;;;58.43;31.80;;;;;;;9.09;69.97;101045.20;2465651;78;25889;-80
2020/12/17 12:43:02;;;;;;;52.67;30.92;;;;;;;9.02;70.08;101048.81;2324451;83;25684;-79
2020/12/17 12:46:23;;;;;;;66.07;33.18;;;;;;;9.00;70.02;101047.43;2333244;83;25710;-79
2020/12/17 12:50:05;;;;;;;60.98;33.33;;;;;;;9.00;70.06;101046.13;2389634;81;26299;-78
2020/12/17 12:53:38;;;;;;;;;;;;;;;;;;;;;
2020/12/17 12:57:23;;;;;;;66.17;33.10;;;;;;;9.04;69.89;101039.34;2610552;74;26191;-80
2020/12/17 13:00:52;;;;;;;62.70;31.75;;;;;;;8.98;69.93;101037.40;2600062;75;26023;-81
2020/12/17 13:04:32;;;;;;;;;;;;;;;8.96;69.84;101038.62;2497359;78;26632;-80
2020/12/17 13:08:00;;;;;;;52.38;30.75;;;;;;;8.94;69.67;101041.59;2468929;78;26295;-78
2020/12/17 13:11:30;;;;;;;53.37;30.93;;;;;;;8.93;69.90;101044.11;2495886;78;25690;-80
2020/12/17 13:14:56;;;;;;;61.45;30.72;;;;;;;8.94;69.93;101044.58;2496292;78;26363;-81
2020/12/17 13:18:24;;;;;;;53.40;30.90;;;;;;;8.95;69.96;101032.07;2524521;77;25690;-81
2020/12/17 13:21:59;;;;;;;61.45;31.68;;;;;;;8.95;69.97;101029.47;2499017;78;25693;-80
2020/12/17 13:25:21;;;;;;;54.77;29.70;;;;;;;8.96;69.97;101022.13;2504513;78;25654;-82
2020/12/17 13:28:51;;;;;;;54.83;30.30;;;;;;;8.96;69.97;101019.53;2501330;78;25690;-81
2020/12/17 13:32:28;;;;;;;54.00;31.55;;;;;;;8.96;69.92;101020.83;2501923;78;25702;-81
2020/12/17 13:58:02;;;;;;;50.17;30.60;;;;;;;8.86;69.66;101019.98;2532794;76;25706;-79
2020/12/17 14:01:30;;;;;;;56.60;31.50;;;;;;;8.79;69.68;101017.55;2380529;81;25872;-81
2020/12/17 14:05:31;;;;;;;53.00;32.48;;;;;;;8.77;69.68;101029.58;2361250;81;26488;-80
2020/12/17 14:09:30;;;;;;;56.97;34.10;;;;;;;8.80;69.57;101028.41;2534462;77;26378;-80
2020/12/17 14:13:05;;;;;;;61.50;31.48;;;;;;;8.75;69.71;101024.75;2498402;79;25628;-79
2020/12/17 14:16:26;;;;;;;61.95;32.38;;;;;;;8.77;69.74;101019.59;2500037;79;25771;-80
2020/12/17 14:19:58;;;;;;;56.58;33.33;;;;;;;8.75;69.70;101015.66;2500493;78;25663;-81
2020/12/17 14:23:53;;;;;;;59.50;33.35;;;;;;;8.74;69.60;101015.16;2384562;81;25656;-78
2020/12/17 14:27:31;;;;;;;58.27;34.10;;;;;;;8.77;69.53;101023.08;2588515;76;25606;-80
2020/12/17 14:30:55;;;;;;;61.42;33.15;;;;;;;8.70;69.54;101018.05;2557919;77;25656;-80
2020/12/17 14:34:17;;;;;;;59.95;33.65;;;;;;;8.70;69.60;101024.55;2531762;77;25758;-80
2020/12/17 14:37:38;;;;;;;63.48;33.63;;;;;;;8.70;69.61;101018.45;2495009;79;25651;-85
2020/12/17 14:41:19;;;;;;;66.20;34.10;;;;;;;8.75;70.61;101016.95;2487355;78;25666;-83
2020/12/17 15:00:35;;;;;;;63.50;35.92;;;;;;;8.64;71.71;101012.62;2330151;77;25435;-85
2020/12/17 15:03:57;;;;;;;70.78;35.88;;;;;;;8.63;72.00;101008.22;2405164;79;25745;-87
2020/12/17 15:07:33;;;;;;;75.67;38.70;;;;;;;8.62;72.34;101005.16;2390443;80;25699;-87
2020/12/17 15:34:26;;;;;;;56.13;30.25;;;;;;;10.13;76.23;100986.64;1914735;99;26465;-82
2020/12/17 20:01:53;;;;;;;;;;;;;;;;;;;;;
2020/12/17 20:06:33;;;;;;;22.55;16.45;;;;;;;10.08;74.13;101008.14;2347287;80;25907;-84
2020/12/17 20:10:07;;;;;;;27.25;18.45;;;;;;;10.65;73.67;101004.50;2249598;87;25663;-79
2020/12/17 20:13:35;;;;;;;28.80;19.50;;;;;;;10.74;72.12;100994.80;2283850;86;25575;-80
2020/12/17 20:17:12;;;;;;;31.77;21.13;;;;;;;10.61;71.66;101000.03;2279100;86;25728;-82
2020/12/17 20:21:02;;;;;;;30.65;20.20;;;;;;;10.51;71.37;101005.77;2272498;84;26167;-89
2020/12/17 20:24:25;;;;;;;34.23;22.75;;;;;;;10.38;71.16;101001.43;2299259;84;25682;-83
2020/12/17 20:27:57;;;;;;;31.62;22.22;;;;;;;10.28;70.91;101003.67;2339124;84;25777;-85
2020/12/17 20:31:22;;;;;;;34.20;21.55;;;;;;;10.18;70.78;100999.82;2348114;84;25668;-84
2020/12/17 20:34:44;;;;;;;33.58;21.40;;;;;;;10.09;70.58;100996.50;2345962;84;25763;-84
2020/12/17 20:38:37;;;;;;;32.65;22.75;;;;;;;10.01;70.43;100992.72;2374266;80;25764;-84
2020/12/17 20:42:01;;;;;;;35.05;24.30;;;;;;;9.93;70.29;100996.78;2423832;80;25761;-85
2020/12/17 20:45:22;;;;;;;34.92;23.77;;;;;;;9.83;70.17;100998.16;2400335;80;25760;-85
2020/12/17 20:48:44;;;;;;;33.50;23.83;;;;;;;9.76;70.04;101005.28;2403410;82;25707;-84
2020/12/17 20:52:06;;;;;;;33.13;23.18;;;;;;;9.68;69.93;100997.16;2396977;80;25565;-85
2020/12/17 20:55:27;;;;;;;40.90;26.30;;;;;;;9.61;69.86;100992.56;2398960;82;25637;-84
2020/12/17 20:58:49;;;;;;;35.92;25.27;;;;;;;9.55;69.79;101004.08;2393449;82;25392;-85
2020/12/17 21:02:11;;;;;;;37.17;24.67;;;;;;;9.49;69.69;101002.53;2396414;81;25539;-81
2020/12/17 21:05:32;;;;;;;43.40;27.98;;;;;;;9.42;69.57;100994.91;2356893;81;25941;-84
2020/12/17 21:09:03;;;;;;;41.13;28.42;;;;;;;9.36;69.52;101001.17;2362602;81;25722;-87
2020/12/17 21:12:26;;;;;;;40.70;28.83;;;;;;;9.30;69.42;100989.64;2298144;85;25771;-84
2020/12/17 21:15:50;;;;;;;40.30;27.80;;;;;;;9.24;69.42;100996.78;2357826;82;26366;-84
2020/12/17 21:19:12;;;;;;;40.55;26.17;;;;;;;9.20;69.40;101002.70;2319562;84;25817;-84
2020/12/17 21:22:34;;;;;;;37.53;25.35;;;;;;;9.15;69.32;101000.35;2318166;84;25495;-84
2020/12/17 21:25:56;;;;;;;37.63;27.17;;;;;;;9.11;69.30;100997.13;2311032;85;25723;-84
2020/12/17 21:29:18;;;;;;;37.75;25.97;;;;;;;9.06;69.30;100990.46;2313719;85;25390;-84
2020/12/17 21:32:41;;;;;;;38.35;25.90;;;;;;;9.04;69.34;100988.20;2311002;85;26600;-83
2020/12/17 21:36:04;;;;;;;38.28;24.95;;;;;;;9.00;69.34;100986.31;2325025;83;25689;-84
2020/12/17 21:39:27;;;;;;;37.30;24.50;;;;;;;8.97;69.39;100993.57;2336810;83;25754;-82
2020/12/17 21:42:49;;;;;;;38.35;25.02;;;;;;;8.93;69.40;100992.98;2336867;83;26084;-87
2020/12/17 21:46:11;;;;;;;36.23;24.95;;;;;;;8.92;69.40;100996.42;2296662;84;25539;-86
2020/12/17 21:49:36;;;;;;;34.95;22.85;;;;;;;8.89;69.36;100997.59;2274068;84;25827;-83
2020/12/17 21:53:05;;;;;;;31.75;21.90;;;;;;;8.85;69.29;100999.60;2340664;83;25594;-88
2020/12/17 21:56:32;;;;;;;38.80;25.02;;;;;;;8.82;69.22;101005.97;2325818;83;25737;-86
2020/12/17 22:00:40;;;;;;;33.63;22.85;;;;;;;8.80;69.23;100993.73;2325348;84;25669;-83
2020/12/17 22:04:10;;;;;;;29.18;20.92;;;;;;;8.77;69.19;100993.60;2272357;84;25549;-83
2020/12/17 22:07:32;;;;;;;26.40;19.17;;;;;;;8.72;69.12;100981.73;2277695;83;25911;-84
2020/12/17 22:10:56;;;;;;;28.95;19.75;;;;;;;8.69;69.06;100982.91;2322715;84;25775;-80
2020/12/17 22:14:40;;;;;;;27.75;19.48;;;;;;;8.66;69.02;100972.37;2315653;84;25569;-85
2020/12/17 22:18:49;;;;;;;;;;;;;;;;;;;;;
2020/12/17 22:33:14;;;;;;;19.20;16.10;;;;;;;8.53;68.66;100950.61;2448994;77;26045;-82
2020/12/17 22:36:57;;;;;;;23.65;16.85;;;;;;;8.46;68.77;100954.66;2295697;84;25633;-82
2020/12/17 22:41:35;;;;;;;24.67;17.37;;;;;;;8.47;68.67;100939.16;2510636;77;27185;-82
2020/12/17 22:44:56;;;;;;;23.90;17.52;;;;;;;8.42;68.69;100931.56;2460603;78;25720;-82
2020/12/17 22:48:17;;;;;;;22.67;15.53;;;;;;;8.41;68.65;100937.60;2483269;79;25583;-82
2020/12/17 22:51:39;;;;;;;23.50;16.35;;;;;;;8.41;68.63;100936.72;2532293;77;25687;-81
2020/12/17 22:55:03;;;;;;;21.90;16.45;;;;;;;8.39;68.57;100927.55;2484747;79;26181;-81
2020/12/17 22:59:10;;;;;;;19.45;14.40;;;;;;;8.38;68.52;100924.90;2313354;83;26404;-82
2020/12/17 23:02:36;;;;;;;19.62;15.85;;;;;;;8.36;68.48;100940.38;2291209;83;25773;-82
2020/12/17 23:06:03;;;;;;;23.67;15.90;;;;;;;8.36;68.51;100942.97;2311123;84;25760;-82
2020/12/17 23:14:29;;;;;;;23.07;15.58;;;;;;;8.33;68.43;100941.54;2309319;82;25975;-82
2020/12/17 23:18:28;;;;;;;20.75;15.32;;;;;;;8.31;68.34;100941.91;2217977;88;25840;-80
2020/12/17 23:33:00;;;;;;;17.53;14.57;;;;;;;8.28;68.14;100938.77;2588079;75;25508;-81
2020/12/17 23:36:25;;;;;;;19.30;15.40;;;;;;;8.22;68.24;100931.13;2506583;77;25672;-81
2020/12/17 23:39:46;;;;;;;19.57;15.63;;;;;;;8.22;68.24;100935.02;2500816;78;25579;-81
2020/12/17 23:43:33;;;;;;;15.80;13.95;;;;;;;8.21;68.25;100941.05;2459598;79;25636;-84
2020/12/17 23:51:56;;;;;;;17.48;14.15;;;;;;;8.47;72.52;100940.45;2449686;80;25500;-82
